createdAt,value
2019-06-07T00:02:01.958Z,67.17
2019-06-07T00:04:32.528Z,67.39
2019-06-07T00:07:02.965Z,67.29
2019-06-07T00:09:33.400Z,67.33
2019-06-07T00:12:03.946Z,67.20
2019-06-07T00:14:36.419Z,67.64
2019-06-07T00:17:07.944Z,67.71
2019-06-07T00:19:39.125Z,67.92
2019-06-07T00:22:29.974Z,68.06
2019-06-07T00:24:41.774Z,68.83
2019-06-07T00:27:12.889Z,68.72
2019-06-07T00:29:43.499Z,68.78
2019-06-07T00:32:18.144Z,70.16
2019-06-07T00:34:46.348Z,70.28
2019-06-07T00:37:19.779Z,69.34
2019-06-07T00:40:12.788Z,70.26
2019-06-07T00:42:23.942Z,69.96
2019-06-07T00:44:53.253Z,69.46
2019-06-07T00:47:25.684Z,70.55
2019-06-07T00:49:55.910Z,70.67
2019-06-07T00:54:58.718Z,71.04
2019-06-07T00:57:29.051Z,70.78
2019-06-07T00:59:59.460Z,71.45
2019-06-07T01:02:31.655Z,70.46
2019-06-07T01:05:02.193Z,72.68
2019-06-07T01:07:32.655Z,71.17
2019-06-07T01:10:03.346Z,70.89
2019-06-07T01:12:33.795Z,71.22
2019-06-07T01:15:04.344Z,71.03
2019-06-07T01:17:43.861Z,72.68
2019-06-07T01:20:07.512Z,72.23
2019-06-07T01:22:37.960Z,73.17
2019-06-07T01:25:09.892Z,73.75
2019-06-07T01:27:40.349Z,73.35
2019-06-07T01:30:14.172Z,74.37
2019-06-07T01:32:44.596Z,75.10
2019-06-07T01:35:16.566Z,73.74
2019-06-07T01:37:47.131Z,74.77
2019-06-07T01:40:20.062Z,73.90
2019-06-07T01:42:50.004Z,74.75
2019-06-07T01:45:21.325Z,75.70
2019-06-07T01:47:51.922Z,75.96
2019-06-07T01:50:24.854Z,76.05
2019-06-07T01:52:54.590Z,76.65
2019-06-07T01:55:29.200Z,76.58
2019-06-07T01:57:57.211Z,76.21
2019-06-07T02:00:32.019Z,76.93
2019-06-07T02:03:00.339Z,77.25
2019-06-07T02:05:32.374Z,76.86
2019-06-07T02:08:03.089Z,76.82
2019-06-07T02:10:33.908Z,77.38
2019-06-07T02:13:04.444Z,76.07
2019-06-07T02:15:36.641Z,75.84
2019-06-07T02:18:07.179Z,76.96
2019-06-07T02:20:37.651Z,77.71
2019-06-07T02:23:08.100Z,78.10
2019-06-07T02:25:48.473Z,77.62
2019-06-07T02:28:27.563Z,77.40
2019-06-07T02:30:51.005Z,76.95
2019-06-07T02:33:15.227Z,76.36
2019-06-07T02:35:45.733Z,76.15
2019-06-07T02:38:16.137Z,75.63
2019-06-07T02:40:46.619Z,75.64
2019-06-07T02:43:17.115Z,74.95
2019-06-07T02:45:47.590Z,75.61
2019-06-07T02:48:18.058Z,76.32
2019-06-07T02:50:48.809Z,77.43
2019-06-07T02:53:19.361Z,77.26
2019-06-07T02:56:34.000Z,76.21
2019-06-07T02:58:22.058Z,75.36
2019-06-07T03:01:08.429Z,76.59
2019-06-07T03:03:28.361Z,76.96
2019-06-07T03:05:58.264Z,77.22
2019-06-07T03:08:33.659Z,76.69
2019-06-07T03:11:04.078Z,77.97
2019-06-07T03:13:37.630Z,78.38
2019-06-07T03:16:10.955Z,78.30
2019-06-07T03:19:16.089Z,77.86
2019-06-07T03:21:46.596Z,78.25
2019-06-07T03:24:17.105Z,78.49
2019-06-07T03:27:32.326Z,78.44
2019-06-07T03:29:19.767Z,77.11
2019-06-07T03:31:50.248Z,76.54
2019-06-07T03:34:20.695Z,77.41
2019-06-07T03:36:51.794Z,78.13
2019-06-07T03:39:22.252Z,77.70
2019-06-07T03:42:05.907Z,77.40
2019-06-07T03:44:24.915Z,77.55
2019-06-07T03:46:55.347Z,77.96
2019-06-07T03:49:27.859Z,79.30
2019-06-07T03:51:58.053Z,79.21
2019-06-07T03:54:29.539Z,79.90
2019-06-07T03:57:00.003Z,79.43
2019-06-07T03:59:35.543Z,79.30
2019-06-07T04:02:02.611Z,79.17
2019-06-07T04:04:34.979Z,79.23
2019-06-07T04:07:05.114Z,79.05
2019-06-07T04:09:40.135Z,79.78
2019-06-07T04:12:07.852Z,79.30
2019-06-07T04:14:42.254Z,80.15
2019-06-07T04:17:10.513Z,79.02
2019-06-07T04:19:43.415Z,79.18
2019-06-07T04:22:13.107Z,78.78
2019-06-07T04:24:43.490Z,79.35
2019-06-07T04:27:13.956Z,78.86
2019-06-07T04:30:05.850Z,79.56
2019-06-07T04:32:16.582Z,79.65
2019-06-07T04:34:46.981Z,78.94
2019-06-07T04:37:18.779Z,78.80
2019-06-07T04:39:50.068Z,78.68
2019-06-07T04:42:22.211Z,77.50
2019-06-07T04:44:54.419Z,77.99
2019-06-07T04:47:29.665Z,77.25
2019-06-07T04:50:01.483Z,77.99
2019-06-07T04:52:33.484Z,77.49
2019-06-07T04:55:04.288Z,77.07
2019-06-07T04:57:36.714Z,76.22
2019-06-07T05:00:45.717Z,75.71
2019-06-07T05:02:40.984Z,76.25
2019-06-07T05:05:11.998Z,76.37
2019-06-07T05:07:45.987Z,75.91
2019-06-07T05:10:14.632Z,75.35
2019-06-07T05:12:45.029Z,74.79
2019-06-07T05:15:15.699Z,74.95
2019-06-07T05:17:46.215Z,73.96
2019-06-07T05:20:17.080Z,74.47
2019-06-07T05:22:47.484Z,75.14
2019-06-07T05:25:18.098Z,74.30
2019-06-07T05:27:48.563Z,74.41
2019-06-07T05:33:10.950Z,73.10
2019-06-07T05:35:43.486Z,72.73
2019-06-07T05:38:13.646Z,71.85
2019-06-07T05:40:48.563Z,71.88
2019-06-07T05:43:28.689Z,72.58
2019-06-07T05:45:59.093Z,72.32
2019-06-07T05:48:29.520Z,71.57
2019-06-07T05:50:59.958Z,71.43
2019-06-07T05:53:31.688Z,71.59
2019-06-07T05:56:02.613Z,69.17
2019-06-07T05:58:33.240Z,69.85
2019-06-07T06:01:41.504Z,68.77
2019-06-07T06:03:36.599Z,68.73
2019-06-07T06:06:08.031Z,68.09
2019-06-07T06:08:41.397Z,67.75
2019-06-07T06:11:10.676Z,68.24
2019-06-07T06:14:01.489Z,65.59
2019-06-07T06:16:13.284Z,65.49
2019-06-07T06:18:47.141Z,67.11
2019-06-07T06:21:19.622Z,66.32
2019-06-07T06:23:52.083Z,65.08
2019-06-07T06:26:20.362Z,64.61
2019-06-07T06:28:50.739Z,63.94
2019-06-07T06:31:21.098Z,62.93
2019-06-07T06:33:51.588Z,62.49
2019-06-07T06:36:22.586Z,61.77
2019-06-07T06:38:53.336Z,61.71
2019-06-07T06:41:23.746Z,60.73
2019-06-07T06:43:54.250Z,60.64
2019-06-07T06:46:38.259Z,60.72
2019-06-07T06:48:59.472Z,60.82
2019-06-07T06:51:29.915Z,59.92
2019-06-07T06:54:00.273Z,60.08
2019-06-07T06:56:30.875Z,59.59
2019-06-07T07:01:33.376Z,60.26
2019-06-07T07:04:12.331Z,60.52
2019-06-07T07:06:37.369Z,59.85
2019-06-07T07:09:08.659Z,58.18
2019-06-07T07:11:59.240Z,58.90
2019-06-07T07:14:11.428Z,58.02
2019-06-07T07:16:42.868Z,58.46
2019-06-07T07:19:14.172Z,57.97
2019-06-07T07:21:45.828Z,56.95
2019-06-07T07:24:21.856Z,57.46
2019-06-07T07:26:51.142Z,56.89
2019-06-07T07:29:20.916Z,56.40
2019-06-07T07:31:55.758Z,54.79
2019-06-07T07:34:34.641Z,56.30
2019-06-07T07:36:59.562Z,54.15
2019-06-07T07:39:28.206Z,54.07
2019-06-07T07:42:18.127Z,54.27
2019-06-07T07:44:31.130Z,54.13
2019-06-07T07:47:01.674Z,53.74
2019-06-07T07:49:32.126Z,52.25
2019-06-07T07:52:02.501Z,51.30
2019-06-07T07:54:33.054Z,50.46
2019-06-07T07:57:03.495Z,49.91
2019-06-07T07:59:44.096Z,48.55
2019-06-07T08:02:06.453Z,47.77
2019-06-07T08:05:13.781Z,48.80
2019-06-07T08:07:09.167Z,46.44
2019-06-07T08:09:39.687Z,46.31
2019-06-07T08:12:10.125Z,45.52
2019-06-07T08:14:40.653Z,47.04
2019-06-07T08:17:11.263Z,46.19
2019-06-07T08:19:41.852Z,46.73
2019-06-07T08:22:12.326Z,45.09
2019-06-07T08:24:42.676Z,45.69
2019-06-07T08:27:25.829Z,46.88
2019-06-07T08:30:01.339Z,46.56
2019-06-07T08:32:17.550Z,45.62
2019-06-07T08:34:49.913Z,46.54
2019-06-07T08:37:20.048Z,45.31
2019-06-07T08:39:52.819Z,46.42
2019-06-07T08:42:36.463Z,45.66
2019-06-07T08:45:01.521Z,46.48
2019-06-07T08:47:27.010Z,44.79
2019-06-07T08:50:04.364Z,45.24
2019-06-07T08:52:29.570Z,44.75
2019-06-07T08:55:04.512Z,43.79
2019-06-07T08:57:32.118Z,43.77
2019-06-07T09:00:15.949Z,43.54
2019-06-07T09:02:34.890Z,43.78
2019-06-07T09:05:12.044Z,43.64
2019-06-07T09:07:37.831Z,44.21
2019-06-07T09:10:14.784Z,44.29
2019-06-07T09:12:41.205Z,44.36
2019-06-07T09:15:21.423Z,43.19
2019-06-07T09:18:30.231Z,43.28
2019-06-07T09:20:35.808Z,43.23
2019-06-07T09:22:50.124Z,43.68
2019-06-07T09:25:21.979Z,42.29
2019-06-07T09:27:52.663Z,43.18
2019-06-07T09:30:44.061Z,41.69
2019-06-07T09:33:14.708Z,41.42
2019-06-07T09:35:45.070Z,41.69
2019-06-07T09:38:24.911Z,41.11
2019-06-07T09:40:47.666Z,42.57
2019-06-07T09:43:59.911Z,41.08
2019-06-07T09:45:50.599Z,40.02
2019-06-07T09:49:01.220Z,40.64
2019-06-07T09:50:53.404Z,41.09
2019-06-07T09:53:23.924Z,38.53
2019-06-07T09:55:54.421Z,38.96
2019-06-07T09:58:51.421Z,39.95
2019-06-07T10:00:59.289Z,37.75
2019-06-07T10:03:29.280Z,37.52
2019-06-07T10:06:03.418Z,36.01
2019-06-07T10:11:04.746Z,35.94
2019-06-07T10:13:35.470Z,35.88
2019-06-07T10:16:07.103Z,34.17
2019-06-07T10:18:37.588Z,30.86
2019-06-07T10:21:12.193Z,32.25
2019-06-07T10:23:40.179Z,31.69
2019-06-07T10:26:10.640Z,30.10
2019-06-07T10:28:41.051Z,30.20
2019-06-07T10:31:11.574Z,31.60
2019-06-07T10:33:42.064Z,32.12
2019-06-07T10:36:12.409Z,29.85
2019-06-07T10:38:42.898Z,32.10
2019-06-07T10:41:13.362Z,31.04
2019-06-07T10:43:43.793Z,31.55
2019-06-07T10:46:14.242Z,31.12
2019-06-07T10:48:44.763Z,30.93
2019-06-07T10:51:15.215Z,31.09
2019-06-07T10:53:45.710Z,31.63
2019-06-07T10:56:16.115Z,29.62
2019-06-07T10:58:46.608Z,29.76
2019-06-07T11:01:17.087Z,28.36
2019-06-07T11:03:47.847Z,29.51
2019-06-07T11:06:18.380Z,29.85
2019-06-07T11:08:48.786Z,28.81
2019-06-07T11:11:19.305Z,27.96
2019-06-07T11:13:52.500Z,28.86
2019-06-07T11:16:21.835Z,27.72
2019-06-07T11:18:52.302Z,26.21
2019-06-07T11:21:22.720Z,25.92
2019-06-07T11:23:53.158Z,27.78
2019-06-07T11:26:23.659Z,28.73
2019-06-07T11:28:54.076Z,28.47
2019-06-07T11:31:24.464Z,27.20
2019-06-07T11:33:54.924Z,28.08
2019-06-07T11:36:25.408Z,26.37
2019-06-07T11:38:55.915Z,27.49
2019-06-07T11:41:26.436Z,27.95
2019-06-07T11:43:57.023Z,27.43
2019-06-07T11:46:27.492Z,27.89
2019-06-07T11:48:57.972Z,29.49
2019-06-07T11:51:28.313Z,29.27
2019-06-07T11:53:58.837Z,29.42
2019-06-07T11:56:29.300Z,29.14
2019-06-07T11:58:59.737Z,29.46
2019-06-07T12:01:30.329Z,28.79
2019-06-07T12:04:00.755Z,28.75
2019-06-07T12:06:31.275Z,29.06
2019-06-07T12:09:01.723Z,30.11
2019-06-07T12:11:32.133Z,28.74
2019-06-07T12:14:02.590Z,27.77
2019-06-07T12:16:33.043Z,28.38
2019-06-07T12:19:04.360Z,28.65
2019-06-07T12:21:34.810Z,27.86
2019-06-07T12:24:05.267Z,27.97
2019-06-07T12:26:35.616Z,28.68
2019-06-07T12:29:10.734Z,27.73
2019-06-07T12:31:41.177Z,28.02
2019-06-07T12:34:11.694Z,29.54
2019-06-07T12:36:42.197Z,28.51
2019-06-07T12:39:13.827Z,27.53
2019-06-07T12:41:44.407Z,26.95
2019-06-07T12:44:14.820Z,26.71
2019-06-07T12:46:45.262Z,25.20
2019-06-07T12:49:16.954Z,23.93
2019-06-07T12:51:47.522Z,23.72
2019-06-07T12:54:18.022Z,21.76
2019-06-07T12:56:48.394Z,21.05
2019-06-07T12:59:20.047Z,19.89
2019-06-07T13:01:50.556Z,20.30
2019-06-07T13:04:21.100Z,22.67
2019-06-07T13:06:51.567Z,20.80
2019-06-07T13:09:22.193Z,20.86
2019-06-07T13:11:52.694Z,21.42
2019-06-07T13:14:24.018Z,20.68
2019-06-07T13:16:54.664Z,21.84
2019-06-07T13:19:25.158Z,21.94
2019-06-07T13:21:55.634Z,21.64
2019-06-07T13:24:26.138Z,21.23
2019-06-07T13:26:56.611Z,22.31
2019-06-07T13:29:29.962Z,22.14
2019-06-07T13:31:59.345Z,23.41
2019-06-07T13:34:29.768Z,22.80
2019-06-07T13:37:00.264Z,21.37
2019-06-07T13:39:30.707Z,22.11
2019-06-07T13:42:01.050Z,23.35
2019-06-07T13:44:31.639Z,22.02
2019-06-07T13:47:02.051Z,23.22
2019-06-07T13:49:32.500Z,23.54
2019-06-07T13:52:02.967Z,23.29
2019-06-07T13:54:33.397Z,24.87
2019-06-07T13:57:03.909Z,26.41
2019-06-07T13:59:34.348Z,28.11
2019-06-07T14:02:04.890Z,28.67
2019-06-07T14:04:35.307Z,31.34
2019-06-07T14:07:05.772Z,30.73
2019-06-07T14:09:36.383Z,30.97
2019-06-07T14:12:07.053Z,30.86
2019-06-07T14:14:37.542Z,32.57
2019-06-07T14:17:07.960Z,32.90
2019-06-07T14:19:38.395Z,33.09
2019-06-07T14:22:08.770Z,32.92
2019-06-07T14:24:39.430Z,33.13
2019-06-07T14:27:10.019Z,32.62
2019-06-07T14:29:41.056Z,33.08
2019-06-07T14:32:11.450Z,34.31
2019-06-07T14:34:42.164Z,34.47
2019-06-07T14:37:12.653Z,33.63
2019-06-07T14:39:43.110Z,34.75
2019-06-07T14:42:13.623Z,34.83
2019-06-07T14:44:44.109Z,35.85
2019-06-07T14:47:14.569Z,35.09
2019-06-07T14:49:45.012Z,35.09
2019-06-07T14:52:15.457Z,35.00
2019-06-07T14:54:45.779Z,34.77
2019-06-07T14:57:16.184Z,35.46
2019-06-07T14:59:46.492Z,34.86
2019-06-07T15:02:17.045Z,35.01
2019-06-07T15:04:48.662Z,34.38
2019-06-07T15:07:20.631Z,33.58
2019-06-07T15:09:51.025Z,33.42
2019-06-07T15:12:25.173Z,34.54
2019-06-07T15:14:53.768Z,33.57
2019-06-07T15:17:24.285Z,34.19
2019-06-07T15:19:54.862Z,33.69
2019-06-07T15:22:25.330Z,34.63
2019-06-07T15:24:55.837Z,33.53
2019-06-07T15:27:27.222Z,33.00
2019-06-07T15:29:57.590Z,33.07
2019-06-07T15:32:28.221Z,33.82
2019-06-07T15:34:58.813Z,32.95
2019-06-07T15:37:30.438Z,32.96
2019-06-07T15:40:01.011Z,33.75
2019-06-07T15:42:42.679Z,34.36
2019-06-07T15:45:03.585Z,33.37
2019-06-07T15:47:34.220Z,33.59
2019-06-07T15:50:05.770Z,32.58
2019-06-07T15:52:38.103Z,32.32
2019-06-07T15:55:09.233Z,32.27
2019-06-07T15:57:41.907Z,32.40
2019-06-07T16:00:14.448Z,31.48
2019-06-07T16:02:44.931Z,31.35
2019-06-07T16:05:16.062Z,30.85
2019-06-07T16:07:46.558Z,29.94
2019-06-07T16:10:17.333Z,29.03
2019-06-07T16:12:59.642Z,28.94
2019-06-07T16:15:21.559Z,28.75
2019-06-07T16:17:52.032Z,28.70
2019-06-07T16:20:22.501Z,29.14
2019-06-07T16:22:52.925Z,28.58
2019-06-07T16:25:23.609Z,27.65
2019-06-07T16:27:54.146Z,27.50
2019-06-07T16:30:24.769Z,26.40
2019-06-07T16:32:55.255Z,26.89
2019-06-07T16:35:25.677Z,26.18
2019-06-07T16:37:56.090Z,25.77
2019-06-07T16:40:26.491Z,25.84
2019-06-07T16:42:56.946Z,26.06
2019-06-07T16:45:27.303Z,25.31
2019-06-07T16:47:57.806Z,25.79
2019-06-07T16:50:28.295Z,25.96
2019-06-07T16:52:58.800Z,26.75
2019-06-07T16:55:29.365Z,26.84
2019-06-07T16:57:59.784Z,26.23
2019-06-07T17:00:30.348Z,27.02
2019-06-07T17:03:00.826Z,27.77
2019-06-07T17:05:31.153Z,28.79
2019-06-07T17:08:01.735Z,30.33
2019-06-07T17:10:32.249Z,31.87
2019-06-07T17:13:02.790Z,33.02
2019-06-07T17:15:33.290Z,34.43
2019-06-07T17:18:03.721Z,35.02
2019-06-07T17:20:34.135Z,35.89
2019-06-07T17:23:04.661Z,36.37
2019-06-07T17:25:35.182Z,37.04
2019-06-07T17:28:05.862Z,37.48
2019-06-07T17:30:36.363Z,37.95
2019-06-07T17:33:06.940Z,38.55
2019-06-07T17:35:37.471Z,38.53
2019-06-07T17:38:07.874Z,38.74
2019-06-07T17:40:38.322Z,39.60
2019-06-07T17:43:08.659Z,40.27
2019-06-07T17:45:39.144Z,40.39
2019-06-07T17:48:09.630Z,40.39
2019-06-07T17:50:40.053Z,40.75
2019-06-07T17:53:10.403Z,40.90
2019-06-07T17:55:42.097Z,41.82
2019-06-07T17:58:12.725Z,41.80
2019-06-07T18:00:51.049Z,42.23
2019-06-07T18:03:21.831Z,42.20
2019-06-07T18:05:54.025Z,42.84
2019-06-07T18:08:26.576Z,42.75
2019-06-07T18:10:57.005Z,42.97
2019-06-07T18:13:27.426Z,42.97
2019-06-07T18:15:59.825Z,43.57
2019-06-07T18:18:30.118Z,44.01
2019-06-07T18:21:00.560Z,43.93
2019-06-07T18:23:30.983Z,44.54
2019-06-07T18:26:01.442Z,44.97
2019-06-07T18:28:31.796Z,44.97
2019-06-07T18:31:02.273Z,45.06
2019-06-07T18:33:32.735Z,45.44
2019-06-07T18:36:03.401Z,45.95
2019-06-07T18:38:35.966Z,46.02
2019-06-07T18:41:06.615Z,46.92
2019-06-07T18:43:36.933Z,48.23
2019-06-07T18:46:07.419Z,48.27
2019-06-07T18:48:37.797Z,48.60
2019-06-07T18:51:08.565Z,47.84
2019-06-07T18:53:38.983Z,48.76
2019-06-07T18:56:09.527Z,49.77
2019-06-07T18:58:39.971Z,50.05
2019-06-07T19:01:10.430Z,49.81
2019-06-07T19:03:40.891Z,50.20
2019-06-07T19:06:11.299Z,51.27
2019-06-07T19:08:41.821Z,52.98
2019-06-07T19:11:12.305Z,54.25
2019-06-07T19:13:42.871Z,55.59
2019-06-07T19:16:13.315Z,55.30
2019-06-07T19:18:43.768Z,55.27
2019-06-07T19:21:14.217Z,54.57
2019-06-07T19:23:44.780Z,54.29
2019-06-07T19:26:15.169Z,53.60
2019-06-07T19:28:45.638Z,54.17
2019-06-07T19:31:16.010Z,54.05
2019-06-07T19:33:49.385Z,54.46
2019-06-07T19:36:18.630Z,55.41
2019-06-07T19:38:49.083Z,57.46
2019-06-07T19:41:20.091Z,58.66
2019-06-07T19:43:50.570Z,56.99
2019-06-07T19:46:20.922Z,57.89
2019-06-07T19:48:52.437Z,57.54
2019-06-07T19:51:23.022Z,57.38
2019-06-07T19:53:54.915Z,57.72
2019-06-07T19:56:25.537Z,58.31
2019-06-07T19:58:55.938Z,58.39
2019-06-07T20:01:26.273Z,58.49
2019-06-07T20:03:57.956Z,60.21
2019-06-07T20:06:28.545Z,59.86
2019-06-07T20:08:59.079Z,61.11
2019-06-07T20:11:29.546Z,61.36
2019-06-07T20:14:00.737Z,60.73
2019-06-07T20:16:31.287Z,60.69
2019-06-07T20:19:03.600Z,61.60
2019-06-07T20:21:33.892Z,61.70
2019-06-07T20:24:22.839Z,61.82
2019-06-07T20:26:36.502Z,62.06
2019-06-07T20:29:24.869Z,62.37
2019-06-07T20:31:39.341Z,62.82
2019-06-07T20:34:09.805Z,63.14
2019-06-07T20:36:40.230Z,63.44
2019-06-07T20:39:10.706Z,63.75
2019-06-07T20:41:41.137Z,64.36
2019-06-07T20:44:11.616Z,63.89
2019-06-07T20:46:42.016Z,64.23
2019-06-07T20:49:12.536Z,64.52
2019-06-07T20:51:43.022Z,64.49
2019-06-07T20:54:13.614Z,65.28
2019-06-07T20:56:44.011Z,66.08
2019-06-07T20:59:14.575Z,66.60
2019-06-07T21:01:45.079Z,66.54
2019-06-07T21:04:15.555Z,66.23
2019-06-07T21:06:45.969Z,66.17
2019-06-07T21:09:16.377Z,65.89
2019-06-07T21:11:46.801Z,64.84
2019-06-07T21:14:17.400Z,64.07
2019-06-07T21:16:48.687Z,63.01
2019-06-07T21:19:19.219Z,62.31
2019-06-07T21:21:49.733Z,59.93
2019-06-07T21:24:20.337Z,59.25
2019-06-07T21:26:53.970Z,58.65
2019-06-07T21:29:24.629Z,58.77
2019-06-07T21:31:55.108Z,58.93
2019-06-07T21:34:25.797Z,59.18
2019-06-07T21:36:56.164Z,57.87
2019-06-07T21:39:26.728Z,58.49
2019-06-07T21:41:57.242Z,57.08
2019-06-07T21:44:27.895Z,56.42
2019-06-07T21:46:58.523Z,55.39
2019-06-07T21:49:29.201Z,54.76
2019-06-07T21:51:59.719Z,55.00
2019-06-07T21:54:30.163Z,54.77
2019-06-07T21:57:00.767Z,55.02
2019-06-07T21:59:31.291Z,54.25
2019-06-07T22:02:03.133Z,53.81
2019-06-07T22:04:33.811Z,53.69
2019-06-07T22:07:05.287Z,53.31
2019-06-07T22:09:35.984Z,53.62
2019-06-07T22:12:07.969Z,53.29
2019-06-07T22:14:39.146Z,53.31
2019-06-07T22:17:10.280Z,52.69
2019-06-07T22:19:40.847Z,52.58
2019-06-07T22:22:12.812Z,53.33
2019-06-07T22:24:43.430Z,53.15
2019-06-07T22:27:13.876Z,53.39
2019-06-07T22:29:44.470Z,53.52
2019-06-07T22:32:19.122Z,53.87
2019-06-07T22:34:49.821Z,54.54
2019-06-07T22:37:23.539Z,54.60
2019-06-07T22:39:52.558Z,53.89
2019-06-07T22:42:22.991Z,52.67
2019-06-07T22:44:53.441Z,52.97
2019-06-07T22:47:23.760Z,54.16
2019-06-07T22:49:54.131Z,53.39
2019-06-07T22:52:25.019Z,53.98
2019-06-07T22:54:55.490Z,52.90
2019-06-07T22:57:27.860Z,52.27
2019-06-07T22:59:58.785Z,53.06
2019-06-07T23:02:29.305Z,52.66
2019-06-07T23:04:59.663Z,52.22
2019-06-07T23:07:30.014Z,52.22
2019-06-07T23:10:00.373Z,52.31
2019-06-07T23:12:30.807Z,52.72
2019-06-07T23:15:01.237Z,52.72
2019-06-07T23:17:31.616Z,52.78
2019-06-07T23:20:02.028Z,53.94
2019-06-07T23:22:32.527Z,53.70
2019-06-07T23:25:02.962Z,53.37
2019-06-07T23:27:33.424Z,53.97
2019-06-07T23:30:08.457Z,54.49
2019-06-07T23:32:36.130Z,54.23
2019-06-07T23:35:06.668Z,54.02
2019-06-07T23:37:37.109Z,53.80
2019-06-07T23:40:09.022Z,53.65
2019-06-07T23:42:39.462Z,53.58
2019-06-07T23:45:11.913Z,53.95
2019-06-07T23:47:42.276Z,55.18
2019-06-07T23:50:13.626Z,54.58
2019-06-07T23:52:44.030Z,54.83
2019-06-07T23:55:15.882Z,55.44
2019-06-07T23:57:46.375Z,55.16
